Time;durP1;ratioP1;P1;durP2;ratioP2;P2;SDS_P1;SDS_P2;PMS_P1;PMS_P2;Temp;Humidity;BMP_temperature;BMP_pressure;BME280_temperature;BME280_humidity;BME280_pressure;Samples;Min_cycle;Max_cycle;Signal;HPM_P1;HPM_P2
2023/06/25 00:00:28;;;;;;;1.23;1.23;;;;;17.70;96486.00;;;;5055623;28;20219;-54
2023/06/25 00:02:55;;;;;;;1.03;1.03;;;;;17.70;96490.00;;;;5055958;28;20192;-54
2023/06/25 00:05:23;;;;;;;0.77;0.77;;;;;17.50;96486.00;;;;5055892;28;20664;-54
2023/06/25 00:07:50;;;;;;;0.93;0.93;;;;;17.30;96490.00;;;;5055602;28;20190;-54
2023/06/25 00:10:18;;;;;;;1.83;1.73;;;;;17.40;96486.00;;;;5055365;28;20220;-54
2023/06/25 00:12:45;;;;;;;1.43;1.33;;;;;17.40;96478.00;;;;5055681;28;20196;-54
2023/06/25 00:15:14;;;;;;;0.93;0.93;;;;;17.30;96486.00;;;;5055654;28;20235;-54
2023/06/25 00:17:47;;;;;;;1.47;1.37;;;;;17.30;96486.00;;;;5055599;28;20193;-54
2023/06/25 00:20:15;;;;;;;0.50;0.50;;;;;17.30;96491.00;;;;5055367;28;20243;-54
2023/06/25 00:22:43;;;;;;;1.20;1.20;;;;;17.30;96487.00;;;;5055608;28;20207;-54
2023/06/25 00:25:11;;;;;;;0.70;0.70;;;;;17.20;96489.00;;;;5055334;28;20196;-54
2023/06/25 00:27:38;;;;;;;0.80;0.80;;;;;17.20;96486.00;;;;5055251;28;20196;-54
2023/06/25 00:30:07;;;;;;;3.70;1.93;;;;;17.20;96488.00;;;;5055323;28;20212;-54
2023/06/25 00:32:36;;;;;;;0.63;0.63;;;;;17.00;96480.00;;;;5055101;28;20694;-54
2023/06/25 00:35:04;;;;;;;2.73;1.47;;;;;17.10;96483.00;;;;5055275;28;20238;-54
2023/06/25 00:37:36;;;;;;;1.00;1.00;;;;;17.10;96473.00;;;;5055129;28;20245;-54
2023/06/25 00:40:09;;;;;;;2.00;1.60;;;;;16.80;96466.00;;;;5055292;28;20303;-54
2023/06/25 00:42:43;;;;;;;0.73;0.73;;;;;16.80;96469.00;;;;5055620;28;20263;-54
2023/06/25 00:45:12;;;;;;;1.03;1.03;;;;;16.70;96469.00;;;;5053634;28;20196;-54
2023/06/25 00:47:41;;;;;;;1.27;1.20;;;;;16.80;96472.00;;;;5055160;28;20548;-54
2023/06/25 00:50:11;;;;;;;0.87;0.87;;;;;16.80;96461.00;;;;5053509;28;20717;-54
2023/06/25 00:52:39;;;;;;;1.20;1.10;;;;;16.70;96460.00;;;;5053505;28;20196;-54
2023/06/25 00:55:08;;;;;;;4.93;1.83;;;;;16.70;96464.00;;;;5054309;28;20279;-55
2023/06/25 00:57:35;;;;;;;1.30;1.23;;;;;16.50;96456.00;;;;5053328;28;20200;-54
2023/06/25 01:00:05;;;;;;;0.70;0.70;;;;;16.50;96456.00;;;;5054869;28;20212;-54
2023/06/25 01:02:43;;;;;;;0.90;0.90;;;;;16.60;96458.00;;;;5055172;28;20198;-54
2023/06/25 01:05:17;;;;;;;1.13;1.13;;;;;16.70;96454.00;;;;5054944;28;20176;-54
2023/06/25 01:07:46;;;;;;;0.57;0.57;;;;;16.70;96455.00;;;;5054550;28;20180;-55
2023/06/25 01:10:14;;;;;;;0.87;0.87;;;;;16.50;96459.00;;;;5054418;28;20259;-54
2023/06/25 01:12:43;;;;;;;1.63;1.53;;;;;16.50;96438.00;;;;5054667;28;20196;-54
2023/06/25 01:15:11;;;;;;;0.90;0.90;;;;;16.40;96440.00;;;;5054296;28;20246;-54
2023/06/25 01:17:39;;;;;;;0.97;0.97;;;;;16.20;96444.00;;;;5055119;28;20192;-55
2023/06/25 01:20:10;;;;;;;1.10;1.10;;;;;16.20;96445.00;;;;5054205;28;20220;-55
2023/06/25 01:22:40;;;;;;;0.60;0.60;;;;;16.10;96440.00;;;;5054389;28;20521;-54
2023/06/25 01:25:09;;;;;;;1.00;1.00;;;;;16.00;96421.00;;;;5054598;28;20267;-54
2023/06/25 01:27:37;;;;;;;1.17;1.07;;;;;16.10;96434.00;;;;5054119;28;20192;-55
2023/06/25 01:30:07;;;;;;;1.03;1.03;;;;;16.10;96427.00;;;;5053963;28;20216;-55
2023/06/25 01:32:35;;;;;;;1.30;1.23;;;;;16.00;96428.00;;;;5052007;28;20287;-55
2023/06/25 01:35:02;;;;;;;0.60;0.60;;;;;16.00;96423.00;;;;5054047;28;20200;-55
2023/06/25 01:37:30;;;;;;;1.00;1.00;;;;;16.20;96427.00;;;;5053778;28;20699;-55
2023/06/25 01:39:59;;;;;;;0.93;0.90;;;;;16.10;96430.00;;;;5053891;28;20214;-55
2023/06/25 01:42:26;;;;;;;0.47;0.47;;;;;16.00;96424.00;;;;5054129;28;20195;-55
2023/06/25 01:44:54;;;;;;;1.20;1.20;;;;;15.90;96425.00;;;;5053820;28;20195;-55
2023/06/25 01:47:21;;;;;;;1.00;1.00;;;;;15.90;96417.00;;;;5053993;28;20643;-55
2023/06/25 01:49:48;;;;;;;1.20;1.20;;;;;16.00;96419.00;;;;5053622;28;20219;-55
2023/06/25 01:52:16;;;;;;;0.70;0.70;;;;;15.80;96408.00;;;;5053692;28;20192;-55
2023/06/25 01:54:43;;;;;;;1.37;1.27;;;;;15.90;96406.00;;;;5053793;28;20200;-54
2023/06/25 01:57:12;;;;;;;1.53;1.43;;;;;15.80;96400.00;;;;5054006;28;20215;-54
2023/06/25 01:59:39;;;;;;;1.10;1.10;;;;;15.60;96401.00;;;;5052370;28;20698;-55
2023/06/25 02:02:07;;;;;;;0.77;0.77;;;;;15.50;96397.00;;;;5053759;28;20594;-55
2023/06/25 02:04:34;;;;;;;1.27;1.27;;;;;15.50;96403.00;;;;5053473;28;20282;-54
2023/06/25 02:07:02;;;;;;;1.00;1.00;;;;;15.50;96399.00;;;;5053409;28;20224;-55
2023/06/25 02:09:29;;;;;;;1.33;1.33;;;;;15.50;96394.00;;;;5053293;28;20208;-54
2023/06/25 02:11:56;;;;;;;2.03;1.93;;;;;15.50;96392.00;;;;5053335;28;20192;-55
2023/06/25 02:14:25;;;;;;;0.97;0.97;;;;;15.50;96383.00;;;;5053501;28;20196;-55
2023/06/25 02:16:52;;;;;;;1.07;1.07;;;;;15.50;96376.00;;;;5053173;28;20219;-55
2023/06/25 02:19:20;;;;;;;1.37;1.37;;;;;15.40;96384.00;;;;5052740;28;20224;-55
2023/06/25 02:21:47;;;;;;;1.60;1.23;;;;;15.40;96389.00;;;;5053170;28;20192;-55
2023/06/25 02:24:14;;;;;;;1.40;1.30;;;;;15.30;96383.00;;;;5053399;28;20262;-55
2023/06/25 02:26:42;;;;;;;0.60;0.60;;;;;15.30;96382.00;;;;5053885;28;20192;-54
2023/06/25 02:29:09;;;;;;;0.90;0.90;;;;;15.40;96370.00;;;;5052548;28;20695;-54
2023/06/25 02:31:38;;;;;;;2.83;1.20;;;;;15.40;96377.00;;;;5051753;28;20192;-55
2023/06/25 02:34:06;;;;;;;1.27;1.17;;;;;15.20;96372.00;;;;5052965;28;20192;-55
2023/06/25 02:36:33;;;;;;;2.03;1.93;;;;;14.90;96381.00;;;;5051651;28;20224;-55
2023/06/25 02:39:00;;;;;;;0.80;0.80;;;;;14.90;96377.00;;;;5051521;28;20265;-55
2023/06/25 02:41:28;;;;;;;0.93;0.93;;;;;14.90;96383.00;;;;5052842;28;20258;-54
2023/06/25 02:43:55;;;;;;;0.63;0.63;;;;;14.90;96380.00;;;;5052691;28;20685;-55
2023/06/25 02:46:22;;;;;;;0.77;0.77;;;;;15.00;96382.00;;;;5053190;28;20188;-54
2023/06/25 02:48:51;;;;;;;1.00;1.00;;;;;15.00;96379.00;;;;5052648;28;20193;-55
2023/06/25 02:51:18;;;;;;;0.77;0.77;;;;;15.00;96385.00;;;;5052998;28;20187;-55
2023/06/25 02:53:46;;;;;;;1.47;1.43;;;;;15.00;96380.00;;;;5053051;28;20192;-55
2023/06/25 02:56:13;;;;;;;1.13;1.13;;;;;15.00;96381.00;;;;5052608;28;20214;-54
2023/06/25 02:58:40;;;;;;;0.70;0.70;;;;;15.00;96373.00;;;;5052621;28;20188;-55
2023/06/25 03:01:08;;;;;;;1.77;1.67;;;;;15.00;96377.00;;;;5052730;28;20192;-54
2023/06/25 03:03:35;;;;;;;1.57;1.47;;;;;15.00;96372.00;;;;5052894;28;20196;-55
2023/06/25 03:06:04;;;;;;;0.87;0.87;;;;;14.90;96386.00;;;;5052633;28;20192;-55
2023/06/25 03:08:31;;;;;;;0.90;0.90;;;;;15.00;96382.00;;;;5052712;28;20667;-55
2023/06/25 03:10:58;;;;;;;0.70;0.70;;;;;14.80;96382.00;;;;5053030;28;20215;-55
2023/06/25 03:13:26;;;;;;;1.70;1.60;;;;;14.80;96385.00;;;;5051507;28;20192;-55
2023/06/25 03:15:53;;;;;;;0.73;0.73;;;;;14.80;96376.00;;;;5052451;28;20267;-55
2023/06/25 03:18:20;;;;;;;1.10;1.10;;;;;14.80;96379.00;;;;5052519;28;20690;-55
2023/06/25 03:20:48;;;;;;;1.57;1.47;;;;;14.70;96375.00;;;;5052398;28;20215;-55
2023/06/25 03:23:17;;;;;;;0.83;0.83;;;;;14.70;96373.00;;;;5052441;28;20192;-55
2023/06/25 03:25:44;;;;;;;0.90;0.90;;;;;14.70;96371.00;;;;5051150;28;20200;-55
2023/06/25 03:28:11;;;;;;;1.00;1.00;;;;;14.60;96368.00;;;;5052479;28;20328;-56
2023/06/25 03:30:39;;;;;;;0.83;0.83;;;;;14.70;96366.00;;;;5052922;28;20216;-56
2023/06/25 03:33:06;;;;;;;1.27;1.27;;;;;14.60;96362.00;;;;5052414;28;20195;-56
2023/06/25 03:35:33;;;;;;;1.23;1.23;;;;;14.60;96356.00;;;;5052642;28;20196;-55
2023/06/25 03:38:01;;;;;;;1.03;1.03;;;;;14.50;96361.00;;;;5052552;28;20231;-58
2023/06/25 03:40:29;;;;;;;0.77;0.77;;;;;14.50;96369.00;;;;5052174;28;20208;-55
2023/06/25 03:42:57;;;;;;;1.90;1.80;;;;;14.60;96363.00;;;;5052263;28;20250;-54
2023/06/25 03:45:24;;;;;;;1.20;1.20;;;;;14.50;96361.00;;;;5052173;28;20278;-54
2023/06/25 03:47:52;;;;;;;0.80;0.80;;;;;14.20;96364.00;;;;5052148;28;20193;-55
2023/06/25 03:50:19;;;;;;;1.87;1.77;;;;;14.00;96364.00;;;;5052121;28;20568;-55
2023/06/25 03:52:46;;;;;;;1.20;1.20;;;;;14.10;96355.00;;;;5052400;28;20207;-55
2023/06/25 03:55:14;;;;;;;2.03;1.97;;;;;14.40;96357.00;;;;5053779;28;20199;-55
2023/06/25 03:57:43;;;;;;;0.93;0.93;;;;;14.40;96348.00;;;;5056107;28;20208;-55
2023/06/25 04:00:11;;;;;;;2.03;1.93;;;;;14.50;96360.00;;;;5055711;28;20212;-55
2023/06/25 04:02:38;;;;;;;0.70;0.70;;;;;14.60;96355.00;;;;5055900;28;20200;-55
2023/06/25 04:05:06;;;;;;;1.43;1.33;;;;;14.70;96354.00;;;;5055681;28;20196;-55
2023/06/25 04:07:33;;;;;;;1.73;1.63;;;;;14.80;96343.00;;;;5055687;28;20195;-54
2023/06/25 04:10:01;;;;;;;1.13;1.13;;;;;14.70;96354.00;;;;5055560;28;20208;-54
2023/06/25 04:12:28;;;;;;;1.03;1.03;;;;;14.80;96349.00;;;;5054586;28;20200;-55
2023/06/25 04:14:57;;;;;;;1.30;1.30;;;;;14.70;96344.00;;;;5055633;28;20203;-55
2023/06/25 04:17:24;;;;;;;1.17;1.17;;;;;14.70;96348.00;;;;5055665;28;20216;-55
2023/06/25 04:19:52;;;;;;;1.40;1.40;;;;;14.80;96347.00;;;;5055353;28;20222;-55
2023/06/25 04:22:19;;;;;;;1.33;1.33;;;;;14.80;96337.00;;;;5055403;28;20192;-55
2023/06/25 04:24:46;;;;;;;1.53;1.43;;;;;14.90;96345.00;;;;5055330;28;20199;-55
2023/06/25 04:27:15;;;;;;;1.43;1.33;;;;;14.80;96342.00;;;;5055610;28;20192;-55
2023/06/25 04:29:42;;;;;;;1.23;1.23;;;;;14.90;96346.00;;;;5055410;28;20220;-55
2023/06/25 04:32:11;;;;;;;0.70;0.70;;;;;14.90;96345.00;;;;5055279;28;20249;-55
2023/06/25 04:34:39;;;;;;;1.20;1.20;;;;;14.90;96345.00;;;;5055206;28;20659;-55
2023/06/25 04:37:06;;;;;;;1.27;1.27;;;;;14.90;96343.00;;;;5055028;28;20220;-55
2023/06/25 04:39:34;;;;;;;1.00;1.00;;;;;14.90;96338.00;;;;5055091;28;20290;-55
2023/06/25 04:42:01;;;;;;;0.63;0.63;;;;;15.10;96334.00;;;;5055469;28;20188;-55
2023/06/25 04:44:28;;;;;;;1.60;1.60;;;;;15.00;96327.00;;;;5055208;28;20184;-55
2023/06/25 04:46:56;;;;;;;1.63;1.53;;;;;15.10;96336.00;;;;5054921;28;20195;-55
2023/06/25 04:49:24;;;;;;;1.30;1.30;;;;;15.10;96329.00;;;;5054948;28;20224;-55
2023/06/25 04:51:52;;;;;;;1.13;1.13;;;;;15.20;96336.00;;;;5055019;28;20203;-55
2023/06/25 04:54:19;;;;;;;1.27;1.27;;;;;15.30;96340.00;;;;5054838;28;20184;-55
2023/06/25 04:56:47;;;;;;;1.20;1.10;;;;;15.30;96335.00;;;;5054976;28;20262;-55
2023/06/25 04:59:14;;;;;;;1.20;1.20;;;;;15.40;96330.00;;;;5055145;28;20718;-55
2023/06/25 05:01:41;;;;;;;1.43;1.37;;;;;15.40;96340.00;;;;5054819;28;20192;-55
2023/06/25 05:04:09;;;;;;;1.20;1.20;;;;;15.30;96344.00;;;;5054635;28;20192;-55
2023/06/25 05:06:37;;;;;;;1.77;1.67;;;;;15.30;96339.00;;;;5053809;28;20203;-55
2023/06/25 05:09:05;;;;;;;1.17;1.10;;;;;15.30;96347.00;;;;5054776;28;20622;-54
2023/06/25 05:11:32;;;;;;;1.33;1.27;;;;;15.30;96350.00;;;;5054477;28;20226;-55
2023/06/25 05:14:00;;;;;;;1.00;1.00;;;;;15.50;96352.00;;;;5054503;28;20200;-54
2023/06/25 05:16:27;;;;;;;1.03;1.03;;;;;15.70;96354.00;;;;5054367;28;20521;-54
2023/06/25 05:18:54;;;;;;;1.60;1.50;;;;;15.70;96357.00;;;;5054725;28;20647;-56
2023/06/25 05:21:22;;;;;;;1.13;1.13;;;;;15.90;96357.00;;;;5054237;28;20233;-54
2023/06/25 05:24:00;;;;;;;1.37;1.30;;;;;15.90;96348.00;;;;5052869;28;20203;-54
2023/06/25 05:26:28;;;;;;;0.97;0.97;;;;;16.00;96352.00;;;;5052831;28;20200;-54
2023/06/25 05:28:56;;;;;;;1.77;1.67;;;;;16.00;96359.00;;;;5054584;28;20207;-54
2023/06/25 05:31:23;;;;;;;1.73;1.63;;;;;16.20;96355.00;;;;5054028;28;20192;-54
2023/06/25 05:33:51;;;;;;;1.03;1.03;;;;;16.30;96355.00;;;;5054523;28;20242;-54
2023/06/25 05:36:18;;;;;;;0.93;0.93;;;;;16.50;96352.00;;;;5052962;28;20252;-54
2023/06/25 05:38:46;;;;;;;1.53;1.43;;;;;16.60;96354.00;;;;5052603;28;20273;-55
2023/06/25 05:41:14;;;;;;;1.10;1.10;;;;;16.70;96360.00;;;;5053989;28;20188;-55
2023/06/25 05:43:42;;;;;;;1.27;1.27;;;;;16.60;96352.00;;;;5053837;28;20245;-55
2023/06/25 05:46:11;;;;;;;0.70;0.70;;;;;16.70;96347.00;;;;5054006;28;20203;-54
2023/06/25 05:48:39;;;;;;;0.90;0.90;;;;;16.90;96349.00;;;;5052344;28;20204;-55
2023/06/25 05:51:07;;;;;;;0.83;0.83;;;;;16.90;96358.00;;;;5052282;28;20256;-54
2023/06/25 05:53:39;;;;;;;1.50;1.40;;;;;16.90;96352.00;;;;5053668;28;20192;-55
2023/06/25 05:56:07;;;;;;;1.40;1.30;;;;;17.00;96357.00;;;;5053439;28;20632;-55
2023/06/25 05:58:37;;;;;;;0.93;0.93;;;;;17.00;96348.00;;;;5053436;28;20216;-56
2023/06/25 06:01:05;;;;;;;0.60;0.60;;;;;17.10;96344.00;;;;5053772;28;20227;-56
2023/06/25 06:03:32;;;;;;;1.90;1.80;;;;;17.20;96340.00;;;;5053726;28;20192;-54
2023/06/25 06:06:00;;;;;;;0.83;0.83;;;;;17.30;96343.00;;;;5053464;28;20664;-54
2023/06/25 06:08:27;;;;;;;2.90;1.63;;;;;17.40;96346.00;;;;5053365;28;20192;-56
2023/06/25 06:10:55;;;;;;;1.10;1.10;;;;;17.60;96350.00;;;;5053603;28;20717;-55
2023/06/25 06:13:22;;;;;;;1.77;1.67;;;;;17.60;96349.00;;;;5053357;28;20227;-56
2023/06/25 06:15:51;;;;;;;1.60;1.50;;;;;17.70;96360.00;;;;5053301;28;20212;-57
2023/06/25 06:18:18;;;;;;;1.47;1.20;;;;;17.70;96358.00;;;;5052922;28;20216;-55
2023/06/25 06:20:46;;;;;;;1.03;1.03;;;;;17.90;96352.00;;;;5053920;28;20223;-56
2023/06/25 06:23:13;;;;;;;1.93;1.50;;;;;18.10;96354.00;;;;5053345;28;20540;-55
2023/06/25 06:25:40;;;;;;;1.27;1.17;;;;;18.30;96349.00;;;;5053375;28;20200;-55
2023/06/25 06:28:08;;;;;;;1.20;1.20;;;;;18.30;96349.00;;;;5053246;28;20192;-56
2023/06/25 06:30:36;;;;;;;0.70;0.70;;;;;18.40;96352.00;;;;5053022;28;20223;-55
2023/06/25 06:33:05;;;;;;;1.17;1.17;;;;;18.60;96342.00;;;;5053622;28;20192;-54
2023/06/25 06:35:32;;;;;;;0.70;0.70;;;;;18.60;96350.00;;;;5053586;28;20555;-55
2023/06/25 06:38:00;;;;;;;1.67;1.57;;;;;18.80;96344.00;;;;5051763;28;20230;-55
2023/06/25 06:40:27;;;;;;;1.47;1.37;;;;;18.80;96347.00;;;;5052925;28;20211;-55
2023/06/25 06:42:55;;;;;;;1.00;1.00;;;;;18.80;96347.00;;;;5053186;28;20590;-55
2023/06/25 06:45:22;;;;;;;1.33;1.33;;;;;19.10;96342.00;;;;5053047;28;20524;-55
2023/06/25 06:47:49;;;;;;;0.77;0.77;;;;;19.30;96342.00;;;;5052862;28;20187;-56
2023/06/25 06:50:18;;;;;;;1.00;1.00;;;;;19.20;96346.00;;;;5052618;28;20219;-55
2023/06/25 06:52:47;;;;;;;0.70;0.70;;;;;19.40;96339.00;;;;5052801;28;20203;-55
2023/06/25 06:55:14;;;;;;;0.80;0.80;;;;;19.50;96344.00;;;;5052748;28;20196;-55
2023/06/25 06:57:41;;;;;;;1.07;1.07;;;;;19.70;96343.00;;;;5051678;28;20227;-55
2023/06/25 07:00:10;;;;;;;1.20;1.20;;;;;19.60;96333.00;;;;5052687;28;20215;-55
2023/06/25 07:02:37;;;;;;;1.37;1.27;;;;;19.70;96334.00;;;;5052670;28;20200;-56
2023/06/25 07:05:05;;;;;;;1.07;1.07;;;;;19.90;96335.00;;;;5052666;28;20195;-55
2023/06/25 07:07:34;;;;;;;1.93;1.83;;;;;20.00;96330.00;;;;5052524;28;20195;-55
2023/06/25 07:10:01;;;;;;;1.70;1.47;;;;;20.10;96333.00;;;;5052817;28;20211;-55
2023/06/25 07:12:29;;;;;;;1.80;1.17;;;;;20.20;96328.00;;;;5052569;28;20196;-55
2023/06/25 07:14:56;;;;;;;1.00;1.00;;;;;20.40;96330.00;;;;5052528;28;20200;-55
2023/06/25 07:17:24;;;;;;;1.13;1.13;;;;;20.60;96320.00;;;;5052413;28;20297;-55
2023/06/25 07:19:51;;;;;;;2.33;2.17;;;;;20.60;96329.00;;;;5052602;28;20216;-55
2023/06/25 07:22:19;;;;;;;1.20;1.10;;;;;20.80;96336.00;;;;5052449;28;20196;-55
2023/06/25 07:24:47;;;;;;;1.00;1.00;;;;;21.00;96340.00;;;;5052442;28;20195;-56
2023/06/25 07:27:15;;;;;;;1.10;1.10;;;;;21.10;96337.00;;;;5052951;28;20196;-55
2023/06/25 07:29:42;;;;;;;1.17;1.17;;;;;21.30;96326.00;;;;5053229;28;20702;-54
2023/06/25 07:32:10;;;;;;;1.10;1.10;;;;;21.30;96329.00;;;;5056819;28;20609;-55
2023/06/25 07:34:37;;;;;;;1.48;1.38;;;;;21.50;96329.00;;;;5054892;28;20540;-55
2023/06/25 07:37:05;;;;;;;1.00;1.00;;;;;21.60;96326.00;;;;5056615;28;20188;-53
2023/06/25 07:39:33;;;;;;;1.35;1.25;;;;;21.80;96324.00;;;;5055975;28;20228;-53
2023/06/25 07:42:01;;;;;;;1.48;1.38;;;;;21.90;96320.00;;;;5056350;28;20188;-55
2023/06/25 07:44:29;;;;;;;2.30;1.58;;;;;22.20;96322.00;;;;5056102;28;20243;-53
2023/06/25 07:46:57;;;;;;;0.90;0.90;;;;;22.30;96321.00;;;;5056024;28;20192;-53
2023/06/25 07:49:24;;;;;;;1.38;1.27;;;;;22.50;96320.00;;;;5056012;28;20764;-52
2023/06/25 07:51:53;;;;;;;0.50;0.50;;;;;22.70;96318.00;;;;5055945;28;20176;-54
2023/06/25 07:54:21;;;;;;;0.50;0.50;;;;;23.10;96324.00;;;;5056091;28;20313;-54
2023/06/25 07:56:48;;;;;;;1.45;1.35;;;;;23.00;96318.00;;;;5056041;28;20614;-53
2023/06/25 07:59:17;;;;;;;2.25;1.10;;;;;23.00;96331.00;;;;5055617;28;20220;-54
2023/06/25 08:01:45;;;;;;;1.13;1.05;;;;;23.10;96327.00;;;;5056204;28;20189;-54
2023/06/25 08:04:12;;;;;;;1.30;1.20;;;;;23.30;96328.00;;;;5055649;28;20188;-56
2023/06/25 08:06:40;;;;;;;1.08;1.08;;;;;23.50;96321.00;;;;5055888;28;20200;-54
2023/06/25 08:09:07;;;;;;;0.88;0.88;;;;;23.30;96324.00;;;;5055601;28;20212;-55
2023/06/25 08:11:35;;;;;;;0.82;0.82;;;;;23.40;96314.00;;;;5055185;28;20612;-55
2023/06/25 08:14:02;;;;;;;1.13;1.13;;;;;23.40;96317.00;;;;5055325;28;20196;-54
2023/06/25 08:16:31;;;;;;;1.90;1.80;;;;;23.40;96311.00;;;;5055684;28;20218;-54
2023/06/25 08:18:59;;;;;;;1.33;1.23;;;;;23.50;96314.00;;;;5055212;28;20223;-55
2023/06/25 08:21:27;;;;;;;1.40;1.30;;;;;23.80;96328.00;;;;5055261;28;20192;-54
2023/06/25 08:23:54;;;;;;;1.73;1.63;;;;;23.70;96330.00;;;;5055523;28;20682;-55
2023/06/25 08:26:22;;;;;;;0.70;0.70;;;;;23.60;96326.00;;;;5055874;28;20192;-55
2023/06/25 08:28:49;;;;;;;0.90;0.90;;;;;23.60;96321.00;;;;5055486;28;20200;-54
2023/06/25 08:31:17;;;;;;;0.85;0.85;;;;;23.90;96313.00;;;;5055186;28;20220;-55
2023/06/25 08:33:45;;;;;;;1.02;1.02;;;;;24.00;96318.00;;;;5055126;28;20204;-55
2023/06/25 08:36:13;;;;;;;0.77;0.77;;;;;24.10;96325.00;;;;5055335;28;20196;-55
2023/06/25 08:38:40;;;;;;;0.70;0.70;;;;;24.00;96327.00;;;;5055701;28;20216;-55
2023/06/25 08:41:07;;;;;;;1.02;1.02;;;;;24.00;96327.00;;;;5055075;28;20666;-54
2023/06/25 08:43:35;;;;;;;1.20;1.17;;;;;24.10;96331.00;;;;5055224;28;20200;-55
2023/06/25 08:46:03;;;;;;;0.98;0.98;;;;;24.10;96331.00;;;;5055263;28;20609;-54
2023/06/25 08:48:32;;;;;;;1.00;1.00;;;;;24.30;96321.00;;;;5055703;28;20191;-55
2023/06/25 08:51:08;;;;;;;1.00;0.90;;;;;24.50;96322.00;;;;5054787;28;20196;-55
2023/06/25 08:53:36;;;;;;;0.85;0.85;;;;;24.30;96318.00;;;;5055305;28;20195;-55
2023/06/25 08:56:06;;;;;;;1.17;1.17;;;;;24.40;96313.00;;;;5054687;28;20246;-55
2023/06/25 08:58:35;;;;;;;0.88;0.88;;;;;24.30;96321.00;;;;5054533;28;20227;-55
2023/06/25 09:01:03;;;;;;;0.70;0.70;;;;;24.40;96319.00;;;;5055105;28;20539;-55
2023/06/25 09:03:31;;;;;;;0.70;0.70;;;;;24.70;96322.00;;;;5054552;28;20196;-55
2023/06/25 09:06:00;;;;;;;0.90;0.90;;;;;24.70;96317.00;;;;5054851;28;20200;-55
2023/06/25 09:08:28;;;;;;;0.93;0.93;;;;;24.90;96318.00;;;;5055020;28;20196;-54
2023/06/25 09:10:57;;;;;;;0.60;0.60;;;;;24.90;96318.00;;;;5054937;28;20215;-55
2023/06/25 09:13:26;;;;;;;0.70;0.70;;;;;24.90;96313.00;;;;5054460;28;20196;-55
2023/06/25 09:16:00;;;;;;;0.90;0.90;;;;;24.90;96315.00;;;;5054265;28;20203;-55
2023/06/25 09:18:29;;;;;;;0.77;0.77;;;;;25.10;96307.00;;;;5054860;28;20200;-54
2023/06/25 09:21:01;;;;;;;0.90;0.90;;;;;25.20;96314.00;;;;5054214;28;20236;-55
2023/06/25 09:23:29;;;;;;;1.60;1.50;;;;;25.10;96313.00;;;;5054522;28;20626;-56
2023/06/25 09:25:58;;;;;;;1.08;1.05;;;;;25.20;96315.00;;;;5054445;28;20200;-55
2023/06/25 09:28:25;;;;;;;1.10;1.10;;;;;25.00;96308.00;;;;5054124;28;20275;-55
2023/06/25 09:30:57;;;;;;;3.35;1.00;;;;;25.10;96309.00;;;;5053950;28;20766;-54
2023/06/25 09:33:33;;;;;;;0.95;0.95;;;;;25.00;96305.00;;;;5054114;28;20196;-54
2023/06/25 09:36:01;;;;;;;2.95;1.70;;;;;25.10;96309.00;;;;5052800;28;20188;-55
2023/06/25 09:38:30;;;;;;;1.52;1.42;;;;;25.40;96305.00;;;;5053921;28;20252;-55
2023/06/25 09:40:59;;;;;;;3.67;1.42;;;;;25.20;96305.00;;;;5053839;28;20215;-56
2023/06/25 09:43:27;;;;;;;1.00;1.00;;;;;25.30;96296.00;;;;5052560;28;20663;-54
2023/06/25 09:45:56;;;;;;;2.00;1.55;;;;;25.30;96302.00;;;;5053797;28;20200;-54
2023/06/25 09:48:24;;;;;;;1.08;1.08;;;;;25.50;96298.00;;;;5054065;28;20195;-54
2023/06/25 09:50:54;;;;;;;1.15;1.15;;;;;25.70;96292.00;;;;5053867;28;20254;-54
2023/06/25 09:53:26;;;;;;;1.20;1.20;;;;;25.40;96283.00;;;;5053323;28;20287;-54
2023/06/25 09:55:57;;;;;;;1.15;1.05;;;;;25.50;96286.00;;;;5054142;28;20646;-54
2023/06/25 09:58:26;;;;;;;0.93;0.93;;;;;25.60;96286.00;;;;5053482;28;20200;-60
2023/06/25 10:00:54;;;;;;;1.00;1.00;;;;;26.00;96291.00;;;;5053705;28;20226;-55
2023/06/25 10:03:22;;;;;;;0.80;0.80;;;;;25.90;96282.00;;;;5053754;28;20562;-55
2023/06/25 10:05:51;;;;;;;0.60;0.60;;;;;25.90;96292.00;;;;5053480;28;20207;-54
2023/06/25 10:08:19;;;;;;;1.15;1.13;;;;;25.90;96275.00;;;;5053597;28;20284;-53
2023/06/25 10:10:58;;;;;;;1.25;1.17;;;;;26.20;96273.00;;;;5053174;28;20286;-54
2023/06/25 10:13:26;;;;;;;0.90;0.90;;;;;26.10;96276.00;;;;5053870;28;20638;-54
2023/06/25 10:15:58;;;;;;;1.00;0.95;;;;;26.20;96282.00;;;;5053343;28;20306;-56
2023/06/25 10:18:26;;;;;;;1.15;1.13;;;;;26.50;96277.00;;;;5053093;28;20215;-54
2023/06/25 10:20:57;;;;;;;1.48;1.38;;;;;26.30;96266.00;;;;5051865;28;20587;-54
2023/06/25 10:23:26;;;;;;;1.08;1.08;;;;;26.30;96267.00;;;;5053182;28;20188;-55
2023/06/25 10:25:54;;;;;;;1.50;1.40;;;;;26.50;96270.00;;;;5053116;28;20196;-55
2023/06/25 10:28:30;;;;;;;1.00;1.00;;;;;26.70;96275.00;;;;5052971;28;20238;-54
2023/06/25 10:30:57;;;;;;;1.77;1.67;;;;;26.90;96262.00;;;;5052763;28;20211;-55
2023/06/25 10:33:25;;;;;;;1.33;1.23;;;;;27.00;96266.00;;;;5053286;28;20198;-54
2023/06/25 10:35:56;;;;;;;1.45;1.27;;;;;26.80;96266.00;;;;5052998;28;20192;-54
2023/06/25 10:38:24;;;;;;;1.52;1.35;;;;;26.80;96268.00;;;;5053067;28;20177;-54
2023/06/25 10:40:52;;;;;;;1.77;1.45;;;;;27.20;96257.00;;;;5051780;28;20737;-54
2023/06/25 10:43:20;;;;;;;1.33;1.23;;;;;27.30;96260.00;;;;5053119;28;20200;-55
2023/06/25 10:45:52;;;;;;;2.47;1.38;;;;;27.30;96266.00;;;;5052742;28;20196;-54
2023/06/25 10:48:20;;;;;;;0.90;0.90;;;;;27.20;96266.00;;;;5052639;28;20211;-54
2023/06/25 10:50:50;;;;;;;1.02;1.02;;;;;27.20;96261.00;;;;5052552;28;20330;-54
2023/06/25 10:53:19;;;;;;;0.90;0.90;;;;;27.30;96256.00;;;;5052576;28;20199;-54
2023/06/25 10:55:48;;;;;;;1.20;1.20;;;;;27.40;96252.00;;;;5052583;28;20199;-54
2023/06/25 10:58:16;;;;;;;0.90;0.90;;;;;27.40;96249.00;;;;5052690;28;20594;-54
2023/06/25 11:00:44;;;;;;;0.98;0.82;;;;;27.20;96251.00;;;;5052441;28;20218;-54
2023/06/25 11:03:13;;;;;;;0.95;0.95;;;;;27.40;96242.00;;;;5052478;28;20199;-54
2023/06/25 11:05:42;;;;;;;0.70;0.70;;;;;27.50;96246.00;;;;5055240;28;20188;-54
2023/06/25 11:08:09;;;;;;;0.60;0.60;;;;;27.30;96252.00;;;;5056757;28;20192;-54
2023/06/25 11:10:38;;;;;;;1.25;1.15;;;;;27.60;96248.00;;;;5056583;28;20207;-54
2023/06/25 11:13:09;;;;;;;0.80;0.80;;;;;27.70;96247.00;;;;5057110;28;20195;-58
2023/06/25 11:15:36;;;;;;;1.02;1.02;;;;;27.60;96239.00;;;;5057518;28;20358;-55
2023/06/25 11:18:04;;;;;;;1.00;0.98;;;;;27.90;96241.00;;;;5056960;28;20313;-54
2023/06/25 11:20:33;;;;;;;1.20;1.20;;;;;27.70;96211.00;;;;5056343;28;20226;-54
2023/06/25 11:23:01;;;;;;;1.17;1.13;;;;;28.00;96233.00;;;;5056724;28;20270;-54
2023/06/25 11:25:29;;;;;;;0.95;0.95;;;;;28.20;96233.00;;;;5056987;28;20228;-54
2023/06/25 11:28:05;;;;;;;2.17;1.50;;;;;28.40;96230.00;;;;5056367;28;20218;-54
2023/06/25 11:30:32;;;;;;;2.90;2.10;;;;;28.40;96228.00;;;;5056579;28;20251;-54
2023/06/25 11:33:10;;;;;;;2.05;1.58;;;;;28.40;96219.00;;;;5056368;28;20192;-54
2023/06/25 11:35:39;;;;;;;1.40;1.30;;;;;28.40;96218.00;;;;5056567;28;20203;-54
2023/06/25 11:38:07;;;;;;;2.35;1.67;;;;;28.60;96216.00;;;;5056251;28;20192;-54
2023/06/25 11:40:36;;;;;;;1.50;1.40;;;;;28.70;96209.00;;;;5056532;28;20629;-54
2023/06/25 11:43:04;;;;;;;1.10;1.10;;;;;28.80;96219.00;;;;5054782;28;20207;-54
2023/06/25 11:45:41;;;;;;;1.35;1.25;;;;;29.20;96212.00;;;;5056575;28;20200;-54
2023/06/25 11:48:14;;;;;;;1.33;1.30;;;;;29.10;96207.00;;;;5055824;28;20180;-54
2023/06/25 11:50:43;;;;;;;1.15;1.15;;;;;29.00;96213.00;;;;5056068;28;20687;-54
2023/06/25 11:53:10;;;;;;;1.35;1.35;;;;;29.20;96204.00;;;;5056982;28;20223;-55
2023/06/25 11:55:39;;;;;;;1.02;1.02;;;;;29.50;96207.00;;;;5056154;28;20716;-54
2023/06/25 11:58:07;;;;;;;2.05;1.80;;;;;29.40;96193.00;;;;5055852;28;20196;-55
2023/06/25 12:00:34;;;;;;;1.13;1.13;;;;;29.10;96198.00;;;;5054648;28;20216;-54
2023/06/25 12:03:02;;;;;;;2.35;2.15;;;;;29.10;96195.00;;;;5055780;28;20713;-54
2023/06/25 12:05:30;;;;;;;2.55;2.00;;;;;29.30;96196.00;;;;5055932;28;20610;-54
2023/06/25 12:07:58;;;;;;;1.60;1.50;;;;;29.40;96189.00;;;;5056036;28;20200;-54
2023/06/25 12:10:26;;;;;;;0.80;0.80;;;;;29.60;96195.00;;;;5055474;28;20262;-54
2023/06/25 12:12:54;;;;;;;1.73;1.63;;;;;29.70;96184.00;;;;5055551;28;20188;-54
2023/06/25 12:15:22;;;;;;;1.00;1.00;;;;;29.60;96188.00;;;;5055080;28;20617;-54
2023/06/25 12:17:49;;;;;;;2.22;1.92;;;;;29.80;96183.00;;;;5055820;28;20624;-54
2023/06/25 12:20:17;;;;;;;1.00;1.00;;;;;29.80;96188.00;;;;5055285;28;20223;-54
2023/06/25 12:22:44;;;;;;;1.50;1.40;;;;;29.90;96176.00;;;;5055597;28;20586;-54